Aviation Digital Data Service (ADDS)

Output produced by TAFs form (0051 UTC 21 November 2017)
found at http://www.aviationweather.gov/adds/tafs/
 
KBOS 202323Z 2100/2206 26012G20KT P6SM SCT070 
     FM210400 24010KT P6SM SCT060 
     FM211400 22012G22KT P6SM FEW250 
     FM211800 22018G29KT P6SM FEW250 
     FM220300 22009KT P6SM BKN250
       
KLGA 202330Z 2100/2124 24010KT P6SM SCT250 
     FM210800 22009KT P6SM SCT250 
     FM211500 22013G20KT P6SM SCT250
       
KEWR 202330Z 2100/2206 23010KT P6SM SCT250 
     FM210300 22006KT P6SM SCT250 
     FM211400 22010KT P6SM SCT250 
     FM211700 21013G20KT P6SM SCT250 
     FM212300 21009KT P6SM SCT250 
     FM220300 22005KT P6SM SCT040 SCT250
       
KJFK 202330Z 2100/2206 24014KT P6SM SCT250 
     FM210300 22011KT P6SM SCT250 
     FM211400 21016G23KT P6SM SCT250 
     FM220300 22012KT P6SM SCT040 SCT250
       
TAF COR KPHL 202327Z 2100/2206 22005KT P6SM SCT250 
     FM211400 21009KT P6SM SCT250 
     FM211700 21012G20KT P6SM SCT250 
     FM220000 21009KT P6SM SCT200
       
KIAD 202320Z 2100/2206 20006KT P6SM SCT250 
     FM211000 19008KT P6SM FEW250 WS020/22035KT 
     FM211400 20009KT P6SM FEW200 
     FM220300 20009KT P6SM BKN060
       
KBWI 202320Z 2100/2206 22006KT P6SM SCT250 
     FM211100 21008KT P6SM FEW250 WS020/22040KT 
     FM211300 21009KT P6SM FEW250 
     FM220500 21007KT P6SM BKN060
       
KDCA 202320Z 2100/2124 20006KT P6SM SCT250 
     FM211400 21010KT P6SM FEW200
       
KCLT 202324Z 2100/2124 19003KT P6SM BKN250 
     FM210600 18003KT P6SM SCT035 BKN200 
     FM211500 16003KT P6SM BKN025 OVC050 
     FM211800 06004KT P6SM -DZ OVC015
       
KATL 202331Z 2100/2206 13007KT P6SM BKN200 
     FM210600 11006KT P6SM BKN030 BKN250 
     FM211000 11005KT P6SM BKN010 OVC030 
     FM211700 11005KT P6SM BKN030 
     FM220200 05005KT P6SM BKN020
       
KMCO 202337Z 2100/2206 07010KT P6SM FEW050 SCT250 
     FM210500 05004KT P6SM SCT050 BKN100 
     FM211300 08006KT P6SM VCSH BKN050 OVC080 
     FM211700 12008KT 5SM -RA BKN035 OVC050 
     TEMPO 2118/2122 3SM RA BR BKN020 OVC040 
     FM212300 09005KT P6SM VCSH SCT040 OVC060
       
KTPA 202323Z 2100/2206 08007KT P6SM SCT050 SCT250 
     FM210500 07006KT P6SM BKN050 
     FM211200 09006KT P6SM VCSH SCT025 OVC050 
     FM211600 14006KT P6SM VCSH SCT030 OVC050
       
KFLL 202322Z 2100/2206 05012KT P6SM FEW030 SCT040 BKN060 
     FM210300 07010KT P6SM VCSH SCT030 BKN050 
     FM210600 09010KT P6SM -SHRA SCT025 BKN035 
     FM211300 12010KT P6SM VCSH SCT025 SCT035 
     FM220000 VRB05KT P6SM FEW025 SCT050
       
KMIA 202322Z 2100/2206 05007KT P6SM VCSH SCT025 BKN045 
     FM210200 08005KT P6SM -SHRA SCT025 BKN035 
     FM210800 12008KT P6SM VCSH SCT025 BKN035 
     FM220000 VRB03KT P6SM FEW025 SCT035
       
KDTW 202322Z 2100/2206 20012KT P6SM BKN250 WS012/22042KT 
     FM211400 22016G26KT P6SM BKN150 
     FM211800 24015G24KT P6SM BKN035 OVC080 
     FM212100 28014G22KT P6SM SCT025 OVC045 
     PROB30 2121/2124 5SM -SHRA BKN025 OVC040 
     FM220000 30012G22KT P6SM BKN040
       
KMSP 202322Z 2100/2206 22009KT P6SM BKN200 
     FM210400 27009KT P6SM SCT250 
     FM210800 29015G22KT P6SM BKN050 
     FM211200 30019G28KT P6SM OVC050 
     FM211700 31021G30KT P6SM SCT150 
     FM212200 32017G23KT P6SM SKC 
     FM220100 31013KT P6SM SKC
       
KORD 202335Z 2100/2206 21018G26KT P6SM BKN250 WS020/22055KT 
     FM210900 23014KT P6SM BKN150 WS020/25040KT 
     FM211500 30015G25KT P6SM BKN050 
     FM220100 32010KT P6SM SCT050
       
KMDW 202335Z 2100/2124 21018G26KT P6SM BKN250 WS020/22055KT 
     FM210900 23014KT P6SM BKN150 WS020/25040KT 
     FM211500 30015G25KT P6SM BKN050
       
KMEM 202320Z 2100/2206 19005KT P6SM FEW250 
     FM211500 21008KT P6SM BKN250 
     FM220000 23005KT P6SM SCT150 BKN250 
     FM220300 36006KT P6SM SCT150 BKN250
       
KDFW 202320Z 2100/2206 18010KT P6SM SCT250 
     FM212000 35010KT P6SM SCT150
       
KIAH 202321Z 2100/2206 12012KT P6SM FEW050 SCT250 
     FM210300 14002KT P6SM SCT025 
     FM211600 17007KT P6SM SCT020 BKN030 
     FM211800 16006KT P6SM BKN050 
     FM220300 07006KT P6SM BKN025
       
KDEN 210015Z 2100/2206 16009KT P6SM FEW160 BKN200 
     FM210030 28012KT P6SM FEW160 BKN200 
     FM210300 20012KT P6SM SCT120 BKN200 
     FM211100 12006KT P6SM SCT070 BKN110 
     FM211500 03015G22KT P6SM BKN060 BKN110 
     FM211800 08012KT P6SM SCT060 BKN110 
     FM212100 15007KT P6SM FEW060 SCT110 
     FM220100 20008KT P6SM FEW110 SCT250
       
KSLC 202340Z 2100/2206 15006KT P6SM VCSH SCT040 BKN060 
     FM211800 34005KT P6SM SCT060 BKN090 
     FM220300 15005KT P6SM SCT070 BKN110
       
KSEA 202336Z 2100/2206 21011KT P6SM VCSH SCT026 BKN040 
     FM210400 10004KT P6SM BKN120 OVC250 
     FM211000 05005KT P6SM SCT025 OVC045 
     FM211400 05007KT 4SM -RA BR OVC020 
     FM211800 06008KT 2SM -RA BR OVC015 
     FM212000 07008KT P6SM -SHRA SCT025 OVC045
       
KSFO 210002Z 2100/2206 02004KT P6SM BKN030 OVC080 
     FM210300 34004KT P6SM BKN030 
     TEMPO 2112/2116 5SM BR SCT008 OVC030 
     FM211600 10004KT P6SM FEW008 SCT120 
     FM212000 VRB03KT P6SM FEW010 
     FM220000 33006KT P6SM FEW012 
     FM220400 29004KT P6SM SCT012
       
KLAX 202340Z 2100/2206 28006KT P6SM FEW150 BKN250 
     FM210300 VRB03KT P6SM BKN250 
     FM212000 27008KT P6SM SKC 
     FM220400 VRB03KT P6SM SKC
       
KSAN 202320Z 2100/2206 VRB04KT P6SM SCT200 
     FM212100 30008KT P6SM SCT200 
     FM220000 VRB04KT P6SM SCT200
       
KLAS 202320Z 2100/2206 VRB05KT P6SM FEW200 BKN250 
     FM210300 21006KT P6SM BKN200 
     FM211600 VRB05KT P6SM BKN250 
     FM220300 25006KT P6SM SCT250
       
KPHX 202327Z 2100/2206 27004KT P6SM BKN250 
     FM210600 09005KT P6SM BKN250 
     FM212100 28005KT P6SM FEW250
       
KSDF 202339Z 2100/2206 17005KT P6SM FEW250 
     FM211000 19010KT P6SM FEW250 
     FM211600 21016G24KT P6SM BKN250 
     FM212200 26008KT P6SM SCT050 BKN150
       
KIND 202324Z 2100/2206 19014KT P6SM SCT250 WS020/23045KT 
     FM211500 22013G21KT P6SM SCT050 BKN250 
     FM212000 24012G21KT P6SM BKN040 
     FM212200 27010G19KT P6SM BKN035 
     FM220200 32009KT P6SM SCT040 SCT200